createdAt,value
2022-08-09T00:01:01.575Z,19.39
2022-08-09T00:03:01.708Z,19.37
2022-08-09T00:06:19.696Z,20.37
2022-08-09T00:08:09.680Z,19.91
2022-08-09T00:10:07.191Z,19.62
2022-08-09T00:12:07.300Z,19.45
2022-08-09T00:14:07.410Z,19.35
2022-08-09T00:16:07.508Z,19.29
2022-08-09T00:18:11.651Z,19.25
2022-08-09T00:20:07.763Z,19.21
2022-08-09T00:22:07.830Z,19.18
2022-08-09T00:24:07.999Z,19.16
2022-08-09T00:26:08.046Z,19.13
2022-08-09T00:28:08.130Z,19.11
2022-08-09T00:30:17.986Z,19.09
2022-08-09T00:32:12.697Z,19.06
2022-08-09T00:34:08.527Z,19.04
2022-08-09T00:36:08.612Z,19.01
2022-08-09T00:38:08.839Z,18.99
2022-08-09T00:40:16.868Z,18.97
2022-08-09T00:44:11.784Z,18.94
2022-08-09T00:44:24.500Z,18.92
2022-08-09T00:46:10.185Z,18.89
2022-08-09T00:48:09.293Z,18.87
2022-08-09T00:50:14.286Z,18.86
2022-08-09T00:52:17.475Z,18.84
2022-08-09T00:54:10.579Z,18.83
2022-08-09T00:56:10.125Z,18.81
2022-08-09T00:58:09.774Z,18.80
2022-08-09T01:00:21.310Z,18.79
2022-08-09T01:02:11.095Z,18.78
2022-08-09T01:04:10.173Z,18.78
2022-08-09T01:06:17.417Z,18.78
2022-08-09T01:08:11.377Z,18.79
2022-08-09T01:10:10.553Z,18.80
2022-08-09T01:12:12.814Z,18.82
2022-08-09T01:14:11.800Z,18.83
2022-08-09T01:16:10.906Z,18.84
2022-08-09T01:18:14.301Z,18.84
2022-08-09T01:20:11.103Z,18.84
2022-08-09T01:22:12.370Z,18.83
2022-08-09T01:24:12.347Z,18.83
2022-08-09T01:26:11.475Z,18.82
2022-08-09T01:28:11.590Z,18.81
2022-08-09T01:30:33.754Z,18.80
2022-08-09T01:32:32.698Z,18.78
2022-08-09T01:34:12.878Z,18.76
2022-08-09T01:36:12.029Z,18.73
2022-08-09T01:38:15.070Z,18.70
2022-08-09T01:40:12.233Z,18.67
2022-08-09T01:42:13.330Z,18.65
2022-08-09T01:44:12.477Z,18.63
2022-08-09T01:46:12.563Z,18.62
2022-08-09T01:48:15.535Z,18.61
2022-08-09T01:50:12.838Z,18.60
2022-08-09T01:52:14.542Z,18.61
2022-08-09T01:54:13.014Z,18.61
2022-08-09T01:56:13.086Z,18.61
2022-08-09T01:58:13.193Z,18.62
2022-08-09T02:00:34.554Z,18.62
2022-08-09T02:02:14.438Z,18.61
2022-08-09T02:04:13.561Z,18.60
2022-08-09T02:06:13.658Z,18.58
2022-08-09T02:08:40.559Z,18.56
2022-08-09T02:10:14.953Z,18.53
2022-08-09T02:12:18.168Z,18.50
2022-08-09T02:14:25.053Z,18.48
2022-08-09T02:16:15.217Z,18.46
2022-08-09T02:18:14.359Z,18.43
2022-08-09T02:20:15.903Z,18.41
2022-08-09T02:22:15.593Z,18.38
2022-08-09T02:24:25.732Z,18.36
2022-08-09T02:26:24.914Z,18.33
2022-08-09T02:28:17.905Z,18.30
2022-08-09T02:30:15.571Z,18.27
2022-08-09T02:32:15.218Z,18.24
2022-08-09T02:34:40.891Z,18.21
2022-08-09T02:36:16.414Z,18.18
2022-08-09T02:38:22.089Z,18.14
2022-08-09T02:40:18.564Z,18.11
2022-08-09T02:42:17.234Z,18.07
2022-08-09T02:44:29.026Z,18.04
2022-08-09T02:46:16.998Z,18.00
2022-08-09T02:48:29.787Z,17.97
2022-08-09T02:50:17.268Z,17.93
2022-08-09T02:52:16.379Z,17.90
2022-08-09T02:54:16.532Z,17.88
2022-08-09T02:56:16.612Z,17.85
2022-08-09T02:58:36.111Z,17.83
2022-08-09T03:00:24.802Z,17.81
2022-08-09T03:02:17.997Z,17.78
2022-08-09T03:04:19.833Z,17.75
2022-08-09T03:06:17.280Z,17.73
2022-08-09T03:08:17.289Z,17.71
2022-08-09T03:10:17.422Z,17.68
2022-08-09T03:12:17.473Z,17.66
2022-08-09T03:14:17.594Z,17.64
2022-08-09T03:16:17.664Z,17.61
2022-08-09T03:18:19.115Z,17.59
2022-08-09T03:20:18.943Z,17.56
2022-08-09T03:22:25.188Z,17.54
2022-08-09T03:24:42.428Z,17.51
2022-08-09T03:26:19.308Z,17.49
2022-08-09T03:28:18.407Z,17.47
2022-08-09T03:30:33.179Z,17.45
2022-08-09T03:32:19.605Z,17.43
2022-08-09T03:34:18.770Z,17.41
2022-08-09T03:37:56.026Z,18.38
2022-08-09T03:39:37.540Z,17.92
2022-08-09T03:41:44.952Z,17.64
2022-08-09T03:43:36.701Z,17.49
2022-08-09T03:46:04.404Z,17.39
2022-08-09T03:47:42.029Z,17.33
2022-08-09T03:49:37.070Z,17.29
2022-08-09T03:51:55.695Z,17.25
2022-08-09T03:53:37.791Z,17.22
2022-08-09T03:55:40.912Z,17.19
2022-08-09T03:57:53.401Z,17.15
2022-08-09T03:59:53.693Z,17.12
2022-08-09T04:01:40.989Z,17.09
2022-08-09T04:04:01.390Z,17.06
2022-08-09T04:05:40.420Z,17.04
2022-08-09T04:07:53.050Z,17.02
2022-08-09T04:09:47.429Z,17.01
2022-08-09T04:11:38.509Z,17.00
2022-08-09T04:14:36.751Z,16.99
2022-08-09T04:16:55.185Z,17.99
2022-08-09T04:18:55.297Z,17.52
2022-08-09T04:20:55.471Z,17.22
2022-08-09T04:22:55.598Z,17.05
2022-08-09T04:24:55.690Z,16.96
2022-08-09T04:26:56.014Z,16.90
2022-08-09T04:28:59.717Z,16.86
2022-08-09T04:30:57.182Z,16.84
2022-08-09T04:32:56.348Z,16.82
2022-08-09T04:34:57.480Z,16.82
2022-08-09T04:36:56.611Z,16.82
2022-08-09T04:38:56.710Z,16.82
2022-08-09T04:40:57.238Z,16.82
2022-08-09T04:42:57.097Z,16.83
2022-08-09T04:44:57.186Z,16.84
2022-08-09T04:47:04.619Z,16.85
2022-08-09T04:48:58.582Z,16.85
2022-08-09T04:50:57.751Z,16.87
2022-08-09T04:52:57.731Z,16.88
2022-08-09T04:54:57.874Z,16.90
2022-08-09T04:56:58.006Z,16.92
2022-08-09T04:58:58.114Z,16.94
2022-08-09T05:00:58.317Z,16.96
2022-08-09T05:02:58.519Z,16.98
2022-08-09T05:05:09.702Z,16.99
2022-08-09T05:06:59.721Z,17.01
2022-08-09T05:09:00.031Z,17.02
2022-08-09T05:10:59.009Z,17.04
2022-08-09T05:12:59.164Z,17.06
2022-08-09T05:14:59.270Z,17.07
2022-08-09T05:16:59.744Z,17.10
2022-08-09T05:19:00.506Z,17.12
2022-08-09T05:20:59.649Z,17.14
2022-08-09T05:23:53.935Z,17.17
2022-08-09T05:25:02.529Z,17.19
2022-08-09T05:27:00.068Z,17.21
2022-08-09T05:29:00.230Z,17.24
2022-08-09T05:31:00.356Z,17.27
2022-08-09T05:33:01.967Z,17.30
2022-08-09T05:35:00.648Z,17.32
2022-08-09T05:37:01.779Z,17.35
2022-08-09T05:39:00.941Z,17.38
2022-08-09T05:41:01.079Z,17.40
2022-08-09T05:43:01.291Z,17.43
2022-08-09T05:45:01.374Z,17.46
2022-08-09T05:47:01.485Z,17.49
2022-08-09T05:49:13.633Z,17.53
2022-08-09T05:51:42.289Z,17.57
2022-08-09T05:53:02.918Z,17.62
2022-08-09T05:55:03.265Z,17.67
2022-08-09T05:57:03.189Z,17.72
2022-08-09T05:59:02.296Z,17.76
2022-08-09T06:01:04.459Z,17.81
2022-08-09T06:03:02.687Z,17.85
2022-08-09T06:05:02.699Z,17.90
2022-08-09T06:07:02.845Z,17.95
2022-08-09T06:09:02.998Z,18.00
2022-08-09T06:11:17.282Z,18.06
2022-08-09T06:13:12.102Z,18.11
2022-08-09T06:15:09.507Z,18.17
2022-08-09T06:17:09.422Z,18.23
2022-08-09T06:19:04.716Z,18.29
2022-08-09T06:21:04.343Z,18.36
2022-08-09T06:23:03.925Z,18.45
2022-08-09T06:25:04.081Z,18.61
2022-08-09T06:27:04.202Z,18.98
2022-08-09T06:29:05.167Z,19.58
2022-08-09T06:31:04.469Z,20.38
2022-08-09T06:33:30.614Z,21.33
2022-08-09T06:35:06.327Z,22.36
2022-08-09T06:37:04.887Z,23.38
2022-08-09T06:39:09.268Z,24.40
2022-08-09T06:41:12.451Z,25.39
2022-08-09T06:43:07.646Z,26.29
2022-08-09T06:46:06.903Z,27.10
2022-08-09T06:47:06.402Z,27.85
2022-08-09T06:49:05.589Z,28.55
2022-08-09T06:51:05.644Z,29.21
2022-08-09T06:53:05.846Z,29.80
2022-08-09T06:55:10.215Z,30.34
2022-08-09T06:57:08.265Z,30.84
2022-08-09T07:00:54.739Z,31.29
2022-08-09T07:01:08.013Z,31.69
2022-08-09T07:03:06.423Z,32.06
2022-08-09T07:05:06.530Z,32.43
2022-08-09T07:07:06.638Z,32.79
2022-08-09T07:09:07.724Z,33.12
2022-08-09T07:11:07.849Z,33.39
2022-08-09T07:13:28.392Z,33.61
2022-08-09T07:15:53.968Z,33.83
2022-08-09T07:17:08.361Z,34.04
2022-08-09T07:19:07.828Z,34.24
2022-08-09T07:21:07.643Z,34.42
2022-08-09T07:23:19.230Z,34.57
2022-08-09T07:25:09.663Z,34.70
2022-08-09T07:27:10.839Z,34.81
2022-08-09T07:29:13.170Z,34.89
2022-08-09T07:31:08.034Z,34.96
2022-08-09T07:33:12.237Z,35.02
2022-08-09T07:35:11.543Z,35.04
2022-08-09T07:37:15.644Z,35.02
2022-08-09T07:39:11.589Z,34.98
2022-08-09T07:41:11.718Z,34.93
2022-08-09T07:43:16.627Z,34.87
2022-08-09T07:45:22.604Z,34.78
2022-08-09T07:47:10.020Z,34.69
2022-08-09T07:49:09.118Z,34.63
2022-08-09T07:52:05.713Z,34.62
2022-08-09T07:53:10.345Z,34.62
2022-08-09T07:55:11.500Z,34.64
2022-08-09T07:57:11.796Z,34.67
2022-08-09T07:59:15.715Z,34.72
2022-08-09T08:01:11.087Z,34.78
2022-08-09T08:03:09.939Z,34.84
2022-08-09T08:05:17.908Z,34.93
2022-08-09T08:08:06.258Z,35.04
2022-08-09T08:09:18.826Z,35.14
2022-08-09T08:12:09.130Z,35.24
2022-08-09T08:13:11.690Z,35.35
2022-08-09T08:15:11.794Z,35.46
2022-08-09T08:17:12.147Z,35.54
2022-08-09T08:19:11.916Z,35.62
2022-08-09T08:21:11.033Z,35.73
2022-08-09T08:23:16.919Z,35.86
2022-08-09T08:25:13.673Z,35.99
2022-08-09T08:27:16.589Z,36.14
2022-08-09T08:29:12.495Z,36.29
2022-08-09T08:31:14.600Z,36.43
2022-08-09T08:33:23.218Z,36.56
2022-08-09T08:35:13.034Z,36.69
2022-08-09T08:37:15.602Z,36.82
2022-08-09T08:39:12.998Z,36.98
2022-08-09T08:41:13.367Z,37.14
2022-08-09T08:43:13.277Z,37.30
2022-08-09T08:45:13.818Z,37.41
2022-08-09T08:47:13.444Z,37.48
2022-08-09T08:49:12.991Z,37.54
2022-08-09T08:51:13.897Z,37.60
2022-08-09T08:53:15.988Z,37.65
2022-08-09T08:55:15.306Z,37.73
2022-08-09T08:57:14.206Z,37.86
2022-08-09T08:59:19.947Z,37.99
2022-08-09T09:01:20.723Z,38.08
2022-08-09T09:03:22.595Z,38.15
2022-08-09T09:05:14.688Z,38.24
2022-08-09T09:07:13.795Z,38.36
2022-08-09T09:09:21.006Z,38.50
2022-08-09T09:11:17.588Z,38.62
2022-08-09T09:13:15.113Z,38.74
2022-08-09T09:15:28.545Z,38.85
2022-08-09T09:17:16.366Z,39.00
2022-08-09T09:19:40.707Z,39.19
2022-08-09T09:21:15.671Z,39.38
2022-08-09T09:23:14.807Z,39.58
2022-08-09T09:26:02.221Z,39.76
2022-08-09T09:28:04.331Z,39.95
2022-08-09T09:29:17.173Z,40.16
2022-08-09T09:31:17.398Z,40.40
2022-08-09T09:33:17.906Z,40.64
2022-08-09T09:35:15.752Z,40.87
2022-08-09T09:37:15.586Z,41.10
2022-08-09T09:39:15.732Z,41.33
2022-08-09T09:41:15.799Z,41.63
2022-08-09T09:43:15.899Z,42.00
2022-08-09T09:45:25.781Z,42.44
2022-08-09T09:47:17.170Z,42.91
2022-08-09T09:49:16.269Z,43.35
2022-08-09T09:51:18.687Z,43.74
2022-08-09T09:53:17.558Z,44.03
2022-08-09T09:55:32.226Z,44.27
2022-08-09T09:58:04.183Z,44.49
2022-08-09T09:59:18.065Z,44.71
2022-08-09T10:01:31.490Z,44.97
2022-08-09T10:03:18.241Z,45.24
2022-08-09T10:05:26.781Z,45.49
2022-08-09T10:07:18.458Z,45.73
2022-08-09T10:09:22.402Z,45.94
2022-08-09T10:11:59.282Z,46.12
2022-08-09T10:13:23.198Z,46.25
2022-08-09T10:15:50.928Z,46.36
2022-08-09T10:17:51.254Z,46.47
2022-08-09T10:19:19.192Z,46.59
2022-08-09T10:21:18.298Z,46.73
2022-08-09T10:23:19.884Z,46.90
2022-08-09T10:25:20.881Z,47.09
2022-08-09T10:27:24.977Z,47.29
2022-08-09T10:29:35.993Z,47.50
2022-08-09T10:34:04.294Z,47.93
2022-08-09T10:35:20.122Z,48.14
2022-08-09T10:37:19.230Z,48.34
2022-08-09T10:39:19.847Z,48.53
2022-08-09T10:41:20.417Z,48.69
2022-08-09T10:43:19.891Z,48.84
2022-08-09T10:45:19.750Z,48.94
2022-08-09T10:48:13.411Z,49.00
2022-08-09T10:49:20.970Z,49.02
2022-08-09T10:51:20.036Z,48.99
2022-08-09T10:53:23.064Z,48.89
2022-08-09T10:55:20.441Z,48.71
2022-08-09T10:57:20.490Z,48.51
2022-08-09T10:59:20.750Z,48.37
2022-08-09T11:03:15.673Z,48.27
2022-08-09T11:03:50.941Z,48.16
2022-08-09T11:05:24.801Z,48.04
2022-08-09T11:07:22.133Z,47.96
2022-08-09T11:09:21.344Z,47.92
2022-08-09T11:11:21.344Z,47.89
2022-08-09T11:13:49.012Z,47.85
2022-08-09T11:15:23.892Z,47.79
2022-08-09T11:17:21.721Z,47.67
2022-08-09T11:19:21.919Z,47.54
2022-08-09T11:21:23.024Z,47.41
2022-08-09T11:23:23.799Z,47.28
2022-08-09T11:25:26.000Z,47.12
2022-08-09T11:28:02.527Z,46.95
2022-08-09T11:30:06.504Z,46.84
2022-08-09T11:31:33.830Z,46.80
2022-08-09T11:33:24.010Z,46.75
2022-08-09T11:35:26.720Z,46.69
2022-08-09T11:37:24.234Z,46.63
2022-08-09T11:39:23.504Z,46.56
2022-08-09T11:41:23.543Z,46.50
2022-08-09T11:43:24.662Z,46.45
2022-08-09T11:45:37.983Z,46.39
2022-08-09T11:47:25.135Z,46.33
2022-08-09T11:49:28.297Z,46.06
2022-08-09T11:53:00.624Z,45.56
2022-08-09T11:53:59.066Z,44.60
2022-08-09T11:55:51.602Z,43.85
2022-08-09T11:57:46.969Z,43.70
2022-08-09T11:59:30.170Z,43.77
2022-08-09T12:01:37.554Z,43.76
2022-08-09T12:03:55.121Z,43.71
2022-08-09T12:05:26.286Z,43.73
2022-08-09T12:07:25.275Z,43.79
2022-08-09T12:09:25.389Z,43.86
2022-08-09T12:11:25.492Z,43.93
2022-08-09T12:14:07.779Z,43.99
2022-08-09T12:15:49.548Z,44.01
2022-08-09T12:17:33.984Z,43.98
2022-08-09T12:19:27.054Z,43.92
2022-08-09T12:21:28.508Z,43.86
2022-08-09T12:23:58.696Z,43.79
2022-08-09T12:25:36.287Z,43.71
2022-08-09T12:28:58.573Z,43.63
2022-08-09T12:29:33.363Z,43.55
2022-08-09T12:31:58.805Z,43.48
2022-08-09T12:33:50.783Z,43.28
2022-08-09T12:35:27.917Z,43.07
2022-08-09T12:37:29.140Z,42.93
2022-08-09T12:39:27.179Z,42.81
2022-08-09T12:41:27.301Z,42.67
2022-08-09T12:44:06.555Z,42.54
2022-08-09T12:45:33.387Z,42.42
2022-08-09T12:47:28.775Z,42.31
2022-08-09T12:49:28.843Z,42.19
2022-08-09T12:51:30.409Z,42.05
2022-08-09T12:53:36.739Z,41.89
2022-08-09T12:56:16.241Z,41.73
2022-08-09T12:57:29.414Z,41.56
2022-08-09T12:59:57.507Z,41.38
2022-08-09T13:01:29.605Z,41.20
2022-08-09T13:03:54.067Z,40.96
2022-08-09T13:05:50.710Z,40.70
2022-08-09T13:07:50.136Z,40.50
2022-08-09T13:09:30.339Z,40.38
2022-08-09T13:11:29.223Z,40.33
2022-08-09T13:14:01.036Z,40.33
2022-08-09T13:15:30.385Z,40.35
2022-08-09T13:18:02.819Z,40.38
2022-08-09T13:20:07.248Z,40.37
2022-08-09T13:22:38.385Z,40.30
2022-08-09T13:24:16.935Z,40.19
2022-08-09T13:25:30.972Z,40.06
2022-08-09T13:27:30.102Z,39.95
2022-08-09T13:30:02.599Z,39.90
2022-08-09T13:32:16.054Z,39.89
2022-08-09T13:33:53.059Z,39.91
2022-08-09T13:35:34.683Z,39.96
2022-08-09T13:37:51.738Z,40.00
2022-08-09T13:41:45.824Z,40.04
2022-08-09T13:41:51.234Z,39.94
2022-08-09T13:43:35.739Z,39.53
2022-08-09T13:46:42.853Z,38.88
2022-08-09T13:47:48.933Z,38.18
2022-08-09T13:49:37.760Z,37.50
2022-08-09T13:51:32.599Z,36.87
2022-08-09T13:53:41.463Z,36.29
2022-08-09T13:55:32.705Z,35.89
2022-08-09T13:57:35.486Z,35.56
2022-08-09T13:59:41.737Z,35.16
2022-08-09T14:01:56.746Z,34.79
2022-08-09T14:04:01.907Z,34.45
2022-08-09T14:05:58.390Z,34.14
2022-08-09T14:07:42.054Z,33.85
2022-08-09T14:09:34.869Z,33.77
2022-08-09T14:11:32.711Z,33.90
2022-08-09T14:14:15.153Z,34.13
2022-08-09T14:16:10.526Z,34.39
2022-08-09T14:18:06.470Z,34.65
2022-08-09T14:19:34.385Z,34.90
2022-08-09T14:21:33.438Z,35.13
2022-08-09T14:23:46.864Z,35.36
2022-08-09T14:25:43.095Z,35.58
2022-08-09T14:27:56.991Z,35.70
2022-08-09T14:30:34.051Z,35.73
2022-08-09T14:31:49.883Z,35.80
2022-08-09T14:33:38.083Z,35.93
2022-08-09T14:35:52.137Z,36.09
2022-08-09T14:37:41.185Z,36.23
2022-08-09T14:39:45.598Z,36.35
2022-08-09T14:41:41.642Z,36.41
2022-08-09T14:43:47.607Z,36.25
2022-08-09T14:46:55.435Z,35.88
2022-08-09T14:47:39.950Z,35.43
2022-08-09T14:49:40.179Z,34.97
2022-08-09T14:51:42.129Z,34.53
2022-08-09T14:53:39.745Z,34.13
2022-08-09T14:55:35.410Z,33.78
2022-08-09T14:57:43.661Z,33.52
2022-08-09T14:59:38.634Z,33.48
2022-08-09T15:01:35.909Z,33.60
2022-08-09T15:03:36.048Z,33.76
2022-08-09T15:05:36.461Z,33.93
2022-08-09T15:07:36.164Z,34.05
2022-08-09T15:10:04.539Z,34.14
2022-08-09T15:11:37.489Z,34.21
2022-08-09T15:13:56.042Z,34.28
2022-08-09T15:15:38.961Z,34.36
2022-08-09T15:17:41.490Z,34.44
2022-08-09T15:19:54.382Z,34.51
2022-08-09T15:22:00.768Z,34.58
2022-08-09T15:24:01.647Z,34.64
2022-08-09T15:25:40.867Z,34.69
2022-08-09T15:27:47.795Z,34.72
2022-08-09T15:30:57.215Z,34.74
2022-08-09T15:31:41.337Z,34.75
2022-08-09T15:34:17.226Z,34.75
2022-08-09T15:35:44.114Z,34.75
2022-08-09T15:37:57.340Z,34.75
2022-08-09T15:39:50.004Z,34.74
2022-08-09T15:41:39.307Z,34.71
2022-08-09T15:43:38.413Z,34.68
2022-08-09T15:46:08.192Z,34.64
2022-08-09T15:47:51.610Z,34.58
2022-08-09T15:49:39.744Z,34.51
2022-08-09T15:52:03.624Z,34.43
2022-08-09T15:54:05.384Z,34.36
2022-08-09T15:55:59.042Z,34.29
2022-08-09T15:57:44.463Z,34.23
2022-08-09T15:59:42.874Z,34.18
2022-08-09T16:01:40.404Z,34.15
2022-08-09T16:03:41.767Z,34.12
2022-08-09T16:05:53.152Z,34.09
2022-08-09T16:07:45.954Z,34.04
2022-08-09T16:10:04.025Z,34.00
2022-08-09T16:11:45.552Z,33.96
2022-08-09T16:14:02.733Z,33.93
2022-08-09T16:16:11.854Z,33.91
2022-08-09T16:17:44.363Z,33.89
2022-08-09T16:19:49.389Z,33.87
2022-08-09T16:21:41.597Z,33.85
2022-08-09T16:23:44.423Z,33.81
2022-08-09T16:25:41.875Z,33.77
2022-08-09T16:27:42.014Z,33.72
2022-08-09T16:29:50.045Z,33.67
2022-08-09T16:32:19.086Z,33.60
2022-08-09T16:33:42.386Z,33.53
2022-08-09T16:35:55.717Z,33.46
2022-08-09T16:37:54.729Z,33.39
2022-08-09T16:39:54.756Z,33.33
2022-08-09T16:42:03.610Z,33.26
2022-08-09T16:43:43.075Z,33.13
2022-08-09T16:45:44.045Z,32.95
2022-08-09T16:48:40.829Z,32.74
2022-08-09T16:50:30.331Z,32.52
2022-08-09T16:51:43.647Z,32.30
2022-08-09T16:54:09.124Z,32.08
2022-08-09T16:55:59.749Z,31.88
2022-08-09T16:58:09.240Z,31.69
2022-08-09T16:59:57.568Z,31.49
2022-08-09T17:01:51.185Z,31.31
2022-08-09T17:03:44.322Z,31.13
2022-08-09T17:06:08.093Z,30.97
2022-08-09T17:08:46.351Z,30.82
2022-08-09T17:09:47.219Z,30.67
2022-08-09T17:11:43.912Z,30.53
2022-08-09T17:13:45.018Z,30.39
2022-08-09T17:15:59.354Z,30.27
2022-08-09T17:17:50.338Z,30.15
2022-08-09T17:20:04.986Z,30.06
2022-08-09T17:21:46.620Z,29.99
2022-08-09T17:24:27.290Z,29.93
2022-08-09T17:25:45.854Z,29.84
2022-08-09T17:27:49.354Z,29.76
2022-08-09T17:29:46.133Z,29.67
2022-08-09T17:31:48.855Z,29.59
2022-08-09T17:33:45.431Z,29.51
2022-08-09T17:35:47.182Z,29.41
2022-08-09T17:38:02.317Z,29.31
2022-08-09T17:39:52.233Z,29.20
2022-08-09T17:41:46.995Z,29.09
2022-08-09T17:43:50.680Z,28.97
2022-08-09T17:46:04.356Z,28.84
2022-08-09T17:47:49.283Z,28.71
2022-08-09T17:49:50.579Z,28.57
2022-08-09T17:51:47.649Z,28.43
2022-08-09T17:53:51.679Z,28.28
2022-08-09T17:55:48.826Z,28.14
2022-08-09T17:58:03.330Z,28.00
2022-08-09T17:59:48.179Z,27.87
2022-08-09T18:02:07.704Z,27.75
2022-08-09T18:03:48.480Z,27.63
2022-08-09T18:05:53.089Z,27.53
2022-08-09T18:07:48.928Z,27.42
2022-08-09T18:10:04.500Z,27.33
2022-08-09T18:12:10.199Z,27.25
2022-08-09T18:13:57.210Z,27.17
2022-08-09T18:16:05.256Z,27.11
2022-08-09T18:18:02.729Z,27.06
2022-08-09T18:20:55.366Z,27.01
2022-08-09T18:21:50.213Z,26.98
2022-08-09T18:24:10.375Z,26.94
2022-08-09T18:25:53.377Z,26.91
2022-08-09T18:28:05.275Z,26.87
2022-08-09T18:30:40.621Z,26.84
2022-08-09T18:31:55.187Z,26.80
2022-08-09T18:33:53.091Z,26.76
2022-08-09T18:35:58.955Z,26.73
2022-08-09T18:37:54.980Z,26.68
2022-08-09T18:39:50.007Z,26.64
2022-08-09T18:41:52.252Z,26.58
2022-08-09T18:43:53.400Z,26.53
2022-08-09T18:46:49.688Z,26.48
2022-08-09T18:47:51.409Z,26.42
2022-08-09T18:49:50.552Z,26.37
2022-08-09T18:51:55.563Z,26.32
2022-08-09T18:53:59.780Z,26.28
2022-08-09T18:55:56.374Z,26.23
2022-08-09T18:57:52.125Z,26.18
2022-08-09T18:59:58.859Z,26.13
2022-08-09T19:01:52.462Z,26.07
2022-08-09T19:04:01.458Z,26.01
2022-08-09T19:06:04.169Z,25.95
2022-08-09T19:08:04.515Z,25.89
2022-08-09T19:10:14.460Z,25.83
2022-08-09T19:11:53.038Z,25.78
2022-08-09T19:13:52.151Z,25.74
2022-08-09T19:15:52.246Z,25.70
2022-08-09T19:17:56.639Z,25.67
2022-08-09T19:20:00.654Z,25.64
2022-08-09T19:22:04.901Z,25.60
2022-08-09T19:24:33.280Z,25.57
2022-08-09T19:26:02.114Z,25.53
2022-08-09T19:27:53.835Z,25.49
2022-08-09T19:30:23.219Z,25.45
2022-08-09T19:31:54.124Z,25.42
2022-08-09T19:33:54.289Z,25.39
2022-08-09T19:35:56.899Z,25.35
2022-08-09T19:37:57.489Z,25.32
2022-08-09T19:40:04.796Z,25.28
2022-08-09T19:41:54.758Z,25.24
2022-08-09T19:44:00.572Z,25.21
2022-08-09T19:45:57.857Z,25.18
2022-08-09T19:47:54.092Z,25.16
2022-08-09T19:50:05.369Z,25.14
2022-08-09T19:51:56.170Z,25.11
2022-08-09T19:53:54.826Z,25.09
2022-08-09T19:56:05.898Z,25.07
2022-08-09T19:57:55.722Z,25.05
2022-08-09T20:00:05.787Z,25.03
2022-08-09T20:02:05.116Z,25.02
2022-08-09T20:04:18.308Z,25.01
2022-08-09T20:05:56.285Z,24.99
2022-08-09T20:08:00.140Z,24.99
2022-08-09T20:09:56.388Z,24.98
2022-08-09T20:11:55.622Z,24.98
2022-08-09T20:13:56.642Z,24.97
2022-08-09T20:16:37.608Z,24.96
2022-08-09T20:17:56.971Z,24.95
2022-08-09T20:19:58.488Z,24.94
2022-08-09T20:21:59.855Z,24.93
2022-08-09T20:23:56.521Z,24.91
2022-08-09T20:25:56.346Z,24.90
2022-08-09T20:27:56.501Z,24.88
2022-08-09T20:29:56.551Z,24.86
2022-08-09T20:32:30.922Z,24.83
2022-08-09T20:33:58.505Z,24.81
2022-08-09T20:35:56.818Z,24.77
2022-08-09T20:38:19.748Z,24.74
2022-08-09T20:40:17.741Z,24.72
2022-08-09T20:41:58.124Z,24.68
2022-08-09T20:43:58.526Z,24.65
2022-08-09T20:46:01.813Z,24.63
2022-08-09T20:47:58.535Z,24.60
2022-08-09T20:49:57.640Z,24.57
2022-08-09T20:51:57.716Z,24.55
2022-08-09T20:53:57.895Z,24.53
2022-08-09T20:56:02.293Z,24.50
2022-08-09T20:58:08.499Z,24.49
2022-08-09T21:00:20.475Z,24.47
2022-08-09T21:01:59.505Z,24.45
2022-08-09T21:05:48.942Z,24.44
2022-08-09T21:06:00.180Z,24.42
2022-08-09T21:08:01.580Z,24.40
2022-08-09T21:09:58.977Z,24.38
2022-08-09T21:14:00.547Z,24.34
2022-08-09T21:16:00.061Z,24.31
2022-08-09T21:18:23.635Z,24.29
2022-08-09T21:20:19.480Z,24.26
2022-08-09T21:22:00.547Z,24.23
2022-08-09T21:24:02.144Z,24.21
2022-08-09T21:26:00.283Z,24.19
2022-08-09T21:27:59.843Z,24.16
2022-08-09T21:29:59.971Z,24.13
2022-08-09T21:32:00.197Z,24.11
2022-08-09T21:34:00.167Z,24.08
2022-08-09T21:36:01.331Z,24.06
2022-08-09T21:38:00.824Z,24.03
2022-08-09T21:40:00.709Z,24.00
2022-08-09T21:42:06.705Z,23.98
2022-08-09T21:44:01.745Z,23.96
2022-08-09T21:46:00.834Z,23.94
2022-08-09T21:48:00.967Z,23.92
2022-08-09T21:50:01.137Z,23.90
2022-08-09T21:52:01.153Z,23.88
2022-08-09T21:54:01.357Z,23.86
2022-08-09T21:56:01.358Z,23.84
2022-08-09T21:58:01.956Z,23.82
2022-08-09T22:00:01.842Z,23.81
2022-08-09T22:02:01.941Z,23.79
2022-08-09T22:04:01.862Z,23.78
2022-08-09T22:06:01.971Z,23.76
2022-08-09T22:08:02.198Z,23.74
2022-08-09T22:10:02.386Z,23.72
2022-08-09T22:12:18.165Z,23.70
2022-08-09T22:14:03.402Z,23.68
2022-08-09T22:16:03.521Z,23.66
2022-08-09T22:18:02.647Z,23.64
2022-08-09T22:20:02.692Z,23.62
2022-08-09T22:22:02.826Z,23.61
2022-08-09T22:24:02.939Z,23.60
2022-08-09T22:26:05.867Z,23.59
2022-08-09T22:28:06.694Z,23.59
2022-08-09T22:30:03.202Z,23.59
2022-08-09T22:32:03.320Z,23.59
2022-08-09T22:34:03.449Z,23.60
2022-08-09T22:36:04.518Z,23.59
2022-08-09T22:38:07.644Z,23.58
2022-08-09T22:40:03.886Z,23.57
2022-08-09T22:42:06.086Z,23.55
2022-08-09T22:44:05.010Z,23.54
2022-08-09T22:48:16.515Z,23.52
2022-08-09T22:48:19.896Z,23.50
2022-08-09T22:50:05.356Z,23.48
2022-08-09T22:52:04.465Z,23.46
2022-08-09T22:54:04.550Z,23.45
2022-08-09T22:56:31.534Z,23.43
2022-08-09T22:58:05.867Z,23.42
2022-08-09T23:00:04.986Z,23.41
2022-08-09T23:02:05.112Z,23.40
2022-08-09T23:04:07.090Z,23.39
2022-08-09T23:06:05.399Z,23.38
2022-08-09T23:08:21.884Z,23.37
2022-08-09T23:10:06.728Z,23.37
2022-08-09T23:12:05.813Z,23.36
2022-08-09T23:14:10.069Z,23.35
2022-08-09T23:16:06.896Z,23.34
2022-08-09T23:18:05.987Z,23.33
2022-08-09T23:20:08.256Z,23.32
2022-08-09T23:22:06.254Z,23.32
2022-08-09T23:24:07.351Z,23.32
2022-08-09T23:26:06.478Z,23.32
2022-08-09T23:28:15.083Z,23.33
2022-08-09T23:30:07.669Z,23.32
2022-08-09T23:32:06.873Z,23.32
2022-08-09T23:34:07.007Z,23.31
2022-08-09T23:36:07.638Z,23.30
2022-08-09T23:38:07.324Z,23.29
2022-08-09T23:40:07.406Z,23.27
2022-08-09T23:42:07.678Z,23.24
2022-08-09T23:44:07.596Z,23.22
2022-08-09T23:46:07.706Z,23.19
2022-08-09T23:48:09.048Z,23.16
2022-08-09T23:50:07.970Z,23.13
2022-08-09T23:52:08.087Z,23.10
2022-08-09T23:54:08.162Z,23.06
2022-08-09T23:56:08.266Z,23.03
2022-08-09T23:58:24.238Z,23.00
